createdAt,value
2022-10-08T00:01:15.991Z,61.41
2022-10-08T00:03:48.395Z,61.24
2022-10-08T00:06:17.736Z,61.06
2022-10-08T00:08:49.390Z,60.81
2022-10-08T00:11:21.822Z,61.05
2022-10-08T00:13:50.460Z,61.91
2022-10-08T00:16:24.376Z,62.37
2022-10-08T00:18:54.164Z,63.60
2022-10-08T00:21:25.677Z,63.37
2022-10-08T00:23:53.218Z,63.28
2022-10-08T00:26:24.341Z,62.53
2022-10-08T00:28:56.949Z,63.83
2022-10-08T00:31:36.246Z,63.19
2022-10-08T00:34:06.032Z,62.70
2022-10-08T00:36:34.700Z,64.32
2022-10-08T00:39:07.774Z,64.46
2022-10-08T00:41:37.296Z,62.99
2022-10-08T00:44:42.026Z,65.08
2022-10-08T00:47:19.391Z,64.64
2022-10-08T00:49:49.370Z,64.66
2022-10-08T00:52:18.292Z,65.33
2022-10-08T00:54:46.008Z,64.76
2022-10-08T00:57:13.250Z,64.25
2022-10-08T00:59:40.514Z,64.16
2022-10-08T01:02:09.064Z,63.80
2022-10-08T01:04:37.868Z,64.04
2022-10-08T01:07:19.057Z,63.77
2022-10-08T01:10:08.717Z,63.42
2022-10-08T01:12:54.807Z,63.03
2022-10-08T01:15:36.764Z,63.35
2022-10-08T01:18:13.724Z,63.07
2022-10-08T01:20:45.487Z,63.09
2022-10-08T01:23:12.710Z,63.53
2022-10-08T01:25:58.467Z,65.68
2022-10-08T01:28:36.785Z,65.53
2022-10-08T01:31:10.972Z,64.43
2022-10-08T01:33:45.614Z,64.57
2022-10-08T01:36:14.731Z,64.62
2022-10-08T01:38:46.917Z,64.61
2022-10-08T01:41:15.169Z,65.57
2022-10-08T01:43:46.343Z,65.26
2022-10-08T01:46:20.434Z,64.79
2022-10-08T01:48:49.769Z,64.48
2022-10-08T01:51:27.771Z,63.99
2022-10-08T01:53:55.999Z,65.43
2022-10-08T01:56:27.477Z,65.10
2022-10-08T01:58:59.175Z,64.80
2022-10-08T02:01:37.240Z,66.58
2022-10-08T02:04:23.400Z,66.05
2022-10-08T02:06:57.898Z,66.14
2022-10-08T02:09:29.213Z,66.25
2022-10-08T02:11:57.561Z,66.36
2022-10-08T02:14:26.597Z,66.81
2022-10-08T02:17:03.672Z,67.28
2022-10-08T02:19:53.035Z,65.67
2022-10-08T02:22:25.742Z,65.75
2022-10-08T02:25:01.012Z,65.30
2022-10-08T02:27:38.049Z,66.16
2022-10-08T02:30:10.078Z,66.13
2022-10-08T02:32:49.300Z,65.93
2022-10-08T02:35:30.127Z,65.41
2022-10-08T02:38:05.401Z,65.47
2022-10-08T02:40:33.551Z,65.50
2022-10-08T02:43:07.257Z,66.41
2022-10-08T02:45:44.028Z,65.18
2022-10-08T02:48:16.438Z,67.02
2022-10-08T02:50:44.606Z,67.92
2022-10-08T02:53:16.035Z,67.95
2022-10-08T02:56:08.249Z,67.87
2022-10-08T02:58:35.800Z,68.13
2022-10-08T03:01:28.688Z,70.20
2022-10-08T03:04:00.645Z,68.85
2022-10-08T03:06:28.374Z,67.38
2022-10-08T03:08:58.169Z,67.00
2022-10-08T03:11:26.185Z,66.47
2022-10-08T03:13:58.545Z,66.87
2022-10-08T03:16:42.645Z,67.40
2022-10-08T03:19:12.227Z,67.67
2022-10-08T03:21:40.930Z,66.91
2022-10-08T03:24:13.005Z,67.99
2022-10-08T03:26:40.652Z,68.34
2022-10-08T03:29:09.149Z,67.96
2022-10-08T03:31:36.843Z,68.04
2022-10-08T03:34:04.319Z,70.06
2022-10-08T03:36:31.876Z,70.37
2022-10-08T03:38:59.155Z,71.40
2022-10-08T03:41:26.554Z,70.76
2022-10-08T03:43:53.841Z,69.94
2022-10-08T03:46:21.188Z,69.67
2022-10-08T03:48:49.893Z,69.74
2022-10-08T03:51:18.602Z,69.44
2022-10-08T03:53:46.076Z,70.40
2022-10-08T03:56:16.556Z,70.58
2022-10-08T03:58:44.181Z,70.26
2022-10-08T04:01:14.747Z,69.58
2022-10-08T04:03:42.488Z,69.35
2022-10-08T04:06:09.923Z,70.30
2022-10-08T04:08:37.644Z,70.08
2022-10-08T04:11:06.749Z,68.92
2022-10-08T04:13:34.979Z,68.33
2022-10-08T04:16:07.034Z,69.62
2022-10-08T04:18:35.042Z,69.05
2022-10-08T04:21:04.741Z,68.69
2022-10-08T04:23:34.492Z,70.77
2022-10-08T04:26:01.807Z,70.59
2022-10-08T04:28:29.685Z,72.68
2022-10-08T04:31:02.199Z,73.65
2022-10-08T04:33:34.957Z,75.36
2022-10-08T04:36:06.964Z,75.84
2022-10-08T04:38:34.287Z,73.34
2022-10-08T04:41:03.933Z,73.15
2022-10-08T04:43:31.356Z,74.35
2022-10-08T04:45:58.650Z,76.55
2022-10-08T04:48:25.965Z,78.40
2022-10-08T04:50:57.572Z,80.98
2022-10-08T04:53:28.145Z,80.84
2022-10-08T04:55:56.399Z,81.41
2022-10-08T04:58:25.694Z,81.61
2022-10-08T05:00:52.903Z,80.04
2022-10-08T05:03:20.210Z,80.30
2022-10-08T05:05:47.436Z,78.77
2022-10-08T05:08:14.713Z,78.66
2022-10-08T05:10:48.096Z,76.38
2022-10-08T05:13:15.363Z,77.38
2022-10-08T05:15:42.613Z,76.25
2022-10-08T05:18:09.948Z,75.75
2022-10-08T05:20:37.331Z,76.31
2022-10-08T05:23:04.605Z,78.81
2022-10-08T05:25:32.656Z,78.05
2022-10-08T05:28:00.262Z,76.97
2022-10-08T05:30:27.697Z,78.08
2022-10-08T05:32:55.352Z,77.46
2022-10-08T05:35:22.603Z,77.17
2022-10-08T05:37:49.812Z,76.57
2022-10-08T05:40:17.215Z,75.59
2022-10-08T05:42:44.546Z,75.37
2022-10-08T05:45:12.207Z,75.56
2022-10-08T05:47:39.675Z,76.75
2022-10-08T05:50:07.559Z,78.04
2022-10-08T05:52:34.835Z,78.81
2022-10-08T05:55:02.058Z,79.78
2022-10-08T05:57:29.320Z,78.90
2022-10-08T05:59:56.611Z,78.49
2022-10-08T06:02:23.943Z,80.51
2022-10-08T06:04:51.332Z,79.83
2022-10-08T06:07:18.631Z,78.84
2022-10-08T06:09:46.146Z,78.17
2022-10-08T06:12:14.142Z,77.74
2022-10-08T06:14:41.409Z,77.44
2022-10-08T06:17:08.896Z,77.34
2022-10-08T06:19:37.253Z,77.89
2022-10-08T06:22:05.009Z,77.85
2022-10-08T06:24:32.353Z,77.72
2022-10-08T06:26:59.662Z,78.13
2022-10-08T06:29:26.984Z,77.05
2022-10-08T06:31:54.274Z,77.76
2022-10-08T06:34:21.697Z,78.96
2022-10-08T06:36:49.038Z,78.11
2022-10-08T06:39:17.911Z,77.84
2022-10-08T06:41:45.664Z,77.72
2022-10-08T06:44:14.527Z,78.17
2022-10-08T06:46:42.651Z,77.65
2022-10-08T06:49:11.150Z,77.63
2022-10-08T06:51:38.463Z,77.74
2022-10-08T06:54:08.317Z,77.09
2022-10-08T06:56:36.773Z,76.57
2022-10-08T06:59:05.342Z,76.42
2022-10-08T07:01:34.417Z,76.17
2022-10-08T07:04:02.579Z,75.80
2022-10-08T07:06:29.939Z,76.48
2022-10-08T07:08:59.244Z,76.27
2022-10-08T07:11:27.032Z,75.81
2022-10-08T07:13:55.123Z,75.70
2022-10-08T07:16:24.475Z,75.69
2022-10-08T07:18:53.428Z,75.66
2022-10-08T07:21:21.989Z,75.62
2022-10-08T07:23:49.569Z,75.49
2022-10-08T07:26:19.095Z,75.41
2022-10-08T07:28:58.095Z,74.96
2022-10-08T07:31:31.276Z,75.25
2022-10-08T07:34:00.039Z,75.19
2022-10-08T07:36:28.509Z,74.89
2022-10-08T07:39:13.689Z,75.17
2022-10-08T07:41:41.555Z,75.01
2022-10-08T07:44:11.130Z,76.87
2022-10-08T07:46:42.663Z,77.04
2022-10-08T07:49:09.854Z,76.37
2022-10-08T07:51:37.259Z,75.64
2022-10-08T07:54:08.485Z,75.00
2022-10-08T07:56:36.384Z,75.19
2022-10-08T07:59:04.765Z,74.91
2022-10-08T08:01:33.319Z,74.41
2022-10-08T08:04:03.233Z,74.38
2022-10-08T08:06:31.790Z,73.78
2022-10-08T08:09:02.256Z,73.76
2022-10-08T08:11:29.935Z,73.85
2022-10-08T08:13:57.330Z,74.25
2022-10-08T08:16:26.649Z,74.14
2022-10-08T08:18:56.103Z,73.99
2022-10-08T08:21:37.188Z,73.28
2022-10-08T08:24:06.639Z,75.65
2022-10-08T08:26:36.711Z,75.28
2022-10-08T08:29:05.528Z,74.57
2022-10-08T08:31:39.033Z,75.79
2022-10-08T08:34:08.827Z,78.26
2022-10-08T08:36:39.369Z,79.68
2022-10-08T08:39:08.890Z,80.90
2022-10-08T08:42:07.293Z,78.24
2022-10-08T08:44:38.202Z,80.83
2022-10-08T08:47:20.490Z,80.66
2022-10-08T08:49:52.653Z,80.10
2022-10-08T08:52:23.732Z,79.02
2022-10-08T08:54:53.296Z,78.83
2022-10-08T08:57:38.725Z,80.06
2022-10-08T09:00:11.461Z,80.04
2022-10-08T09:02:56.131Z,80.10
2022-10-08T09:05:25.226Z,79.63
2022-10-08T09:07:59.770Z,79.50
2022-10-08T09:10:36.977Z,77.66
2022-10-08T09:13:04.327Z,76.75
2022-10-08T09:15:36.489Z,76.41
2022-10-08T09:18:04.852Z,76.52
2022-10-08T09:20:35.635Z,76.25
2022-10-08T09:23:29.439Z,75.18
2022-10-08T09:26:00.636Z,74.62
2022-10-08T09:28:54.729Z,73.19
2022-10-08T09:31:29.700Z,73.17
2022-10-08T09:34:17.362Z,71.71
2022-10-08T09:37:05.072Z,71.74
2022-10-08T09:39:37.361Z,70.44
2022-10-08T09:42:07.518Z,71.87
2022-10-08T09:44:40.752Z,70.38
2022-10-08T09:47:12.366Z,69.43
2022-10-08T09:49:40.191Z,68.79
2022-10-08T09:52:26.954Z,66.64
2022-10-08T09:55:02.493Z,68.03
2022-10-08T09:57:30.766Z,66.99
2022-10-08T10:00:00.776Z,66.77
2022-10-08T10:02:31.317Z,66.87
2022-10-08T10:04:59.684Z,65.16
2022-10-08T10:07:47.620Z,65.28
2022-10-08T10:10:20.207Z,65.39
2022-10-08T10:12:53.332Z,64.41
2022-10-08T10:15:46.558Z,63.68
2022-10-08T10:18:17.499Z,63.78
2022-10-08T10:20:48.497Z,62.60
2022-10-08T10:23:20.021Z,62.30
2022-10-08T10:25:57.493Z,60.73
2022-10-08T10:28:40.608Z,60.75
2022-10-08T10:31:16.869Z,59.57
2022-10-08T10:33:54.610Z,60.53
2022-10-08T10:36:23.176Z,60.33
2022-10-08T10:39:06.473Z,61.40
2022-10-08T10:41:43.200Z,59.40
2022-10-08T10:44:11.648Z,60.70
2022-10-08T10:46:44.971Z,61.37
2022-10-08T10:49:21.267Z,61.34
2022-10-08T10:52:33.582Z,61.19
2022-10-08T10:55:23.553Z,61.26
2022-10-08T10:58:19.968Z,62.45
2022-10-08T11:00:55.614Z,60.43
2022-10-08T11:03:42.986Z,58.99
2022-10-08T11:06:39.242Z,58.10
2022-10-08T11:09:09.187Z,58.10
2022-10-08T11:11:41.463Z,58.37
2022-10-08T11:14:21.024Z,57.88
2022-10-08T11:16:51.154Z,58.04
2022-10-08T11:19:25.640Z,56.82
2022-10-08T11:22:10.667Z,57.46
2022-10-08T11:24:53.143Z,56.77
2022-10-08T11:27:22.594Z,54.29
2022-10-08T11:30:04.655Z,53.53
2022-10-08T11:32:33.943Z,53.21
2022-10-08T11:35:11.863Z,53.57
2022-10-08T11:37:55.101Z,54.11
2022-10-08T11:40:35.447Z,52.04
2022-10-08T11:43:11.257Z,51.83
2022-10-08T11:45:44.233Z,50.75
2022-10-08T11:48:25.408Z,50.49
2022-10-08T11:50:52.758Z,51.66
2022-10-08T11:53:21.452Z,51.62
2022-10-08T11:55:59.156Z,50.03
2022-10-08T11:58:30.363Z,49.25
2022-10-08T12:01:09.079Z,50.13
2022-10-08T12:03:39.291Z,47.20
2022-10-08T12:06:26.081Z,47.07
2022-10-08T12:09:05.562Z,46.96
2022-10-08T12:11:32.717Z,47.46
2022-10-08T12:14:12.351Z,45.01
2022-10-08T12:16:48.860Z,44.81
2022-10-08T12:19:34.902Z,44.66
2022-10-08T12:22:14.794Z,44.68
2022-10-08T12:24:50.058Z,44.51
2022-10-08T12:27:18.001Z,45.09
2022-10-08T12:30:08.008Z,44.99
2022-10-08T12:32:44.771Z,44.98
2022-10-08T12:35:28.811Z,44.23
2022-10-08T12:38:19.945Z,43.75
2022-10-08T12:41:02.711Z,44.60
2022-10-08T12:43:45.194Z,44.18
2022-10-08T12:46:34.257Z,44.23
2022-10-08T12:49:23.808Z,44.31
2022-10-08T12:52:03.521Z,44.76
2022-10-08T12:54:31.478Z,44.67
2022-10-08T12:56:59.868Z,43.85
2022-10-08T12:59:32.196Z,44.57
2022-10-08T13:01:59.552Z,44.25
2022-10-08T13:04:30.041Z,44.38
2022-10-08T13:07:00.662Z,44.43
2022-10-08T13:09:33.629Z,43.96
2022-10-08T13:12:05.785Z,44.11
2022-10-08T13:14:36.359Z,44.34
2022-10-08T13:17:04.331Z,43.85
2022-10-08T13:19:37.695Z,45.01
2022-10-08T13:22:23.817Z,45.26
2022-10-08T13:24:51.229Z,45.11
2022-10-08T13:27:45.252Z,45.16
2022-10-08T13:30:28.228Z,44.85
2022-10-08T13:33:05.683Z,45.63
2022-10-08T13:35:35.766Z,46.57
2022-10-08T13:38:07.334Z,46.22
2022-10-08T13:40:34.965Z,46.05
2022-10-08T13:43:02.181Z,46.52
2022-10-08T13:45:36.641Z,46.55
2022-10-08T13:48:04.568Z,46.06
2022-10-08T13:50:32.297Z,45.40
2022-10-08T13:53:00.615Z,44.44
2022-10-08T13:55:36.153Z,44.42
2022-10-08T13:58:05.693Z,43.59
2022-10-08T14:00:35.725Z,43.13
2022-10-08T14:03:03.432Z,43.21
2022-10-08T14:05:34.080Z,43.02
2022-10-08T14:08:05.828Z,42.90
2022-10-08T14:10:33.586Z,42.74
2022-10-08T14:13:00.957Z,42.19
2022-10-08T14:15:35.131Z,42.26
2022-10-08T14:18:08.038Z,43.35
2022-10-08T14:20:36.567Z,41.68
2022-10-08T14:23:03.873Z,43.00
2022-10-08T14:25:31.953Z,41.35
2022-10-08T14:27:59.803Z,41.67
2022-10-08T14:30:28.103Z,41.29
2022-10-08T14:32:55.657Z,41.00
2022-10-08T14:35:23.233Z,42.43
2022-10-08T14:37:50.699Z,42.45
2022-10-08T14:40:21.503Z,42.98
2022-10-08T14:42:49.919Z,44.03
2022-10-08T14:45:17.759Z,44.08
2022-10-08T14:47:45.225Z,44.14
2022-10-08T14:50:13.536Z,44.06
2022-10-08T14:52:44.347Z,44.28
2022-10-08T14:55:13.395Z,44.90
2022-10-08T14:57:40.728Z,43.88
2022-10-08T15:03:16.521Z,44.46
2022-10-08T15:05:43.867Z,44.08
2022-10-08T15:08:11.228Z,45.20
2022-10-08T15:10:38.452Z,43.14
2022-10-08T15:13:05.717Z,43.71
2022-10-08T15:15:32.958Z,43.18
2022-10-08T15:18:00.175Z,42.78
2022-10-08T15:20:27.448Z,42.03
2022-10-08T15:22:54.679Z,41.95
2022-10-08T15:25:22.014Z,41.97
2022-10-08T15:27:49.266Z,42.89
2022-10-08T15:30:16.901Z,43.51
2022-10-08T15:32:44.142Z,41.24
2022-10-08T15:35:12.226Z,41.24
2022-10-08T15:37:39.821Z,39.78
2022-10-08T15:40:07.490Z,40.10
2022-10-08T15:42:34.873Z,40.40
2022-10-08T15:45:02.197Z,39.78
2022-10-08T15:47:29.642Z,39.95
2022-10-08T15:49:56.938Z,39.62
2022-10-08T15:52:24.269Z,40.67
2022-10-08T15:54:51.506Z,42.20
2022-10-08T15:57:19.195Z,41.58
2022-10-08T15:59:46.649Z,39.41
2022-10-08T16:02:17.586Z,39.59
2022-10-08T16:04:46.953Z,39.30
2022-10-08T16:07:14.351Z,39.89
2022-10-08T16:09:41.693Z,40.45
2022-10-08T16:12:09.004Z,40.99
2022-10-08T16:14:36.394Z,41.14
2022-10-08T16:17:03.855Z,40.48
2022-10-08T16:19:31.309Z,41.54
2022-10-08T16:21:58.787Z,41.93
2022-10-08T16:24:26.129Z,42.50
2022-10-08T16:26:53.392Z,42.73
2022-10-08T16:29:20.816Z,43.38
2022-10-08T16:31:48.502Z,41.52
2022-10-08T16:34:20.522Z,41.28
2022-10-08T16:36:48.396Z,41.39
2022-10-08T16:39:18.145Z,41.13
2022-10-08T16:41:45.638Z,40.87
2022-10-08T16:44:15.354Z,40.85
2022-10-08T16:46:45.288Z,40.94
2022-10-08T16:49:22.779Z,41.33
2022-10-08T16:51:56.325Z,41.54
2022-10-08T16:54:23.979Z,42.69
2022-10-08T16:56:51.331Z,43.77
2022-10-08T16:59:21.102Z,43.41
2022-10-08T17:01:50.818Z,43.69
2022-10-08T17:04:18.430Z,43.80
2022-10-08T17:06:45.740Z,43.52
2022-10-08T17:09:13.238Z,44.19
2022-10-08T17:11:41.800Z,44.19
2022-10-08T17:14:10.375Z,44.45
2022-10-08T17:16:38.391Z,44.31
2022-10-08T17:19:06.167Z,44.09
2022-10-08T17:21:35.025Z,44.43
2022-10-08T17:24:03.168Z,45.22
2022-10-08T17:26:31.141Z,44.94
2022-10-08T17:29:03.193Z,45.08
2022-10-08T17:31:31.758Z,45.19
2022-10-08T17:33:59.788Z,45.28
2022-10-08T17:36:29.416Z,45.41
2022-10-08T17:38:58.621Z,45.38
2022-10-08T17:41:33.759Z,45.39
2022-10-08T17:44:02.923Z,45.76
2022-10-08T17:46:35.008Z,46.07
2022-10-08T17:49:02.505Z,45.54
2022-10-08T17:51:30.559Z,45.94
2022-10-08T17:54:00.480Z,45.37
2022-10-08T17:56:28.322Z,45.53
2022-10-08T17:58:55.922Z,45.61
2022-10-08T18:01:28.610Z,45.23
2022-10-08T18:03:58.366Z,44.21
2022-10-08T18:06:26.868Z,43.86
2022-10-08T18:08:58.999Z,43.72
2022-10-08T18:11:28.057Z,43.21
2022-10-08T18:13:55.633Z,42.77
2022-10-08T18:16:23.119Z,42.70
2022-10-08T18:18:50.355Z,42.29
2022-10-08T18:21:18.641Z,42.41
2022-10-08T18:23:48.722Z,43.02
2022-10-08T18:26:27.380Z,42.89
2022-10-08T18:28:59.494Z,42.53
2022-10-08T18:31:31.053Z,42.80
2022-10-08T18:34:00.818Z,42.73
2022-10-08T18:36:30.045Z,42.55
2022-10-08T18:38:59.476Z,42.93
2022-10-08T18:41:29.037Z,42.94
2022-10-08T18:43:57.119Z,43.69
2022-10-08T18:46:24.630Z,43.52
2022-10-08T18:48:51.969Z,43.46
2022-10-08T18:51:21.702Z,43.80
2022-10-08T18:53:49.770Z,44.17
2022-10-08T18:56:38.662Z,44.03
2022-10-08T18:59:08.014Z,44.13
2022-10-08T19:01:37.434Z,44.25
2022-10-08T19:04:07.449Z,43.92
2022-10-08T19:06:37.328Z,45.97
2022-10-08T19:09:06.252Z,43.88
2022-10-08T19:11:44.337Z,44.21
2022-10-08T19:14:14.873Z,44.42
2022-10-08T19:16:42.796Z,44.41
2022-10-08T19:19:24.293Z,44.84
2022-10-08T19:21:52.260Z,45.10
2022-10-08T19:24:21.406Z,44.57
2022-10-08T19:26:48.724Z,45.00
2022-10-08T19:29:24.340Z,48.14
2022-10-08T19:31:52.092Z,45.03
2022-10-08T19:34:21.789Z,44.84
2022-10-08T19:36:49.632Z,45.12
2022-10-08T19:39:19.527Z,45.20
2022-10-08T19:41:47.161Z,45.61
2022-10-08T19:44:15.881Z,48.55
2022-10-08T19:46:43.366Z,45.77
2022-10-08T19:49:11.393Z,46.59
2022-10-08T19:51:39.096Z,45.46
2022-10-08T19:54:06.797Z,47.18
2022-10-08T19:56:35.821Z,46.75
2022-10-08T19:59:03.340Z,46.03
2022-10-08T20:01:33.507Z,48.53
2022-10-08T20:04:01.212Z,49.21
2022-10-08T20:06:31.133Z,48.39
2022-10-08T20:09:01.122Z,48.68
2022-10-08T20:11:30.324Z,49.69
2022-10-08T20:13:58.617Z,50.11
2022-10-08T20:16:31.668Z,50.44
2022-10-08T20:19:01.222Z,51.18
2022-10-08T20:21:30.060Z,51.60
2022-10-08T20:23:57.517Z,52.05
2022-10-08T20:26:37.079Z,51.52
2022-10-08T20:29:05.498Z,51.29
2022-10-08T20:31:39.183Z,52.06
2022-10-08T20:34:13.388Z,52.67
2022-10-08T20:36:40.813Z,53.90
2022-10-08T20:39:08.200Z,54.27
2022-10-08T20:41:35.509Z,54.52
2022-10-08T20:44:04.057Z,55.45
2022-10-08T20:46:33.119Z,54.93
2022-10-08T20:49:00.632Z,55.03
2022-10-08T20:51:29.355Z,52.57
2022-10-08T20:54:01.891Z,53.04
2022-10-08T20:56:30.396Z,51.87
2022-10-08T20:58:57.773Z,50.33
2022-10-08T21:01:37.539Z,49.35
2022-10-08T21:04:06.259Z,48.07
2022-10-08T21:06:39.971Z,48.60
2022-10-08T21:09:08.029Z,48.88
2022-10-08T21:11:36.213Z,48.57
2022-10-08T21:14:04.495Z,47.86
2022-10-08T21:16:34.559Z,48.25
2022-10-08T21:19:03.879Z,48.41
2022-10-08T21:21:32.951Z,49.11
2022-10-08T21:24:00.645Z,49.52
2022-10-08T21:26:29.425Z,49.87
2022-10-08T21:28:58.812Z,48.99
2022-10-08T21:31:27.075Z,48.84
2022-10-08T21:33:54.849Z,49.21
2022-10-08T21:36:24.816Z,48.59
2022-10-08T21:38:52.157Z,50.54
2022-10-08T21:41:22.046Z,49.58
2022-10-08T21:43:51.784Z,49.29
2022-10-08T21:46:24.911Z,49.30
2022-10-08T21:49:00.523Z,52.00
2022-10-08T21:51:29.352Z,52.83
2022-10-08T21:53:58.209Z,52.99
2022-10-08T21:56:27.463Z,51.58
2022-10-08T21:58:58.101Z,51.95
2022-10-08T22:01:28.426Z,50.20
2022-10-08T22:03:59.705Z,49.67
2022-10-08T22:06:32.729Z,50.35
2022-10-08T22:09:00.260Z,49.15
2022-10-08T22:11:27.679Z,49.34
2022-10-08T22:13:54.893Z,50.61
2022-10-08T22:16:23.019Z,50.70
2022-10-08T22:18:50.487Z,50.44
2022-10-08T22:21:19.801Z,50.62
2022-10-08T22:23:47.480Z,50.87
2022-10-08T22:26:20.218Z,50.77
2022-10-08T22:28:48.102Z,50.78
2022-10-08T22:31:16.776Z,51.05
2022-10-08T22:33:44.394Z,51.55
2022-10-08T22:36:18.215Z,51.35
2022-10-08T22:38:46.220Z,51.66
2022-10-08T22:41:19.431Z,51.67
2022-10-08T22:43:46.761Z,51.83
2022-10-08T22:46:18.353Z,51.42
2022-10-08T22:48:46.445Z,52.88
2022-10-08T22:51:16.597Z,52.53
2022-10-08T22:53:43.871Z,51.91
2022-10-08T22:56:14.350Z,51.35
2022-10-08T22:58:41.791Z,51.44
2022-10-08T23:01:11.091Z,51.74
2022-10-08T23:03:38.745Z,51.63
2022-10-08T23:06:22.167Z,51.89
2022-10-08T23:08:53.960Z,51.14
2022-10-08T23:11:21.173Z,51.13
2022-10-08T23:13:55.625Z,51.97
2022-10-08T23:16:24.645Z,51.61
2022-10-08T23:18:54.274Z,52.42
2022-10-08T23:21:21.964Z,53.14
2022-10-08T23:23:49.961Z,51.83
2022-10-08T23:26:18.134Z,52.18
2022-10-08T23:28:50.163Z,54.07
2022-10-08T23:31:22.519Z,55.65
2022-10-08T23:33:51.520Z,56.32
2022-10-08T23:36:23.891Z,56.81
2022-10-08T23:38:51.546Z,57.60
2022-10-08T23:41:19.314Z,57.23
2022-10-08T23:43:47.982Z,58.08
2022-10-08T23:46:16.899Z,56.31
2022-10-08T23:48:44.312Z,58.81
2022-10-08T23:51:13.067Z,59.70
2022-10-08T23:53:42.638Z,56.04
2022-10-08T23:56:10.571Z,60.48
2022-10-08T23:58:38.218Z,59.97
